Time;durP1;ratioP1;P1;durP2;ratioP2;P2;SDS_P1;SDS_P2;PMS_P1;PMS_P2;Temp;Humidity;BMP_temperature;BMP_pressure;BME280_temperature;BME280_humidity;BME280_pressure;Samples;Min_cycle;Max_cycle;Signal;HPM_P1;HPM_P2
2022/06/21 00:00:56;;;;;;;2.77;1.30;;;;;;;10.84;84.64;98737.15;1762266;79;21068;-62
2022/06/21 00:03:26;;;;;;;3.10;0.90;;;;;;;10.70;84.77;98729.36;1767395;79;21048;-62
2022/06/21 00:05:53;;;;;;;2.65;1.05;;;;;;;10.58;84.55;98727.51;1738846;79;21046;-61
2022/06/21 00:08:25;;;;;;;2.87;1.00;;;;;;;10.49;84.69;98729.76;1766897;80;22385;-62
2022/06/21 00:10:53;;;;;;;4.87;1.65;;;;;;;10.45;84.72;98728.30;1765750;79;20941;-62
2022/06/21 00:13:25;;;;;;;3.33;1.30;;;;;;;10.38;85.52;98730.89;1769389;79;22287;-61
2022/06/21 00:15:57;;;;;;;2.95;1.40;;;;;;;10.31;85.07;98728.31;1765809;79;21599;-62
2022/06/21 00:18:25;;;;;;;3.22;0.93;;;;;;;10.22;85.15;98731.44;1769108;79;21028;-62
2022/06/21 00:20:53;;;;;;;2.70;1.00;;;;;;;10.17;85.13;98729.60;1768866;79;21044;-62
2022/06/21 00:23:24;;;;;;;1.57;0.82;;;;;;;10.14;85.14;98728.45;1764486;79;21087;-62
2022/06/21 00:25:52;;;;;;;2.67;1.02;;;;;;;10.11;85.07;98726.04;1765229;80;22355;-62
2022/06/21 00:28:20;;;;;;;2.87;1.10;;;;;;;10.11;85.21;98724.73;1734782;80;21021;-62
2022/06/21 00:30:50;;;;;;;2.75;1.12;;;;;;;10.14;85.33;98723.23;1724449;80;21235;-62
2022/06/21 00:33:22;;;;;;;4.78;1.47;;;;;;;10.17;85.44;98718.70;1727718;81;21064;-62
2022/06/21 00:35:54;;;;;;;8.68;1.17;;;;;;;10.23;85.54;98726.61;1760989;79;21049;-62
2022/06/21 00:38:34;;;;;;;4.53;1.20;;;;;;;10.22;85.37;98717.09;1763703;79;21171;-63
2022/06/21 00:41:04;;;;;;;3.72;1.30;;;;;;;10.20;85.32;98716.38;1758778;81;21120;-62
2022/06/21 00:43:36;;;;;;;3.42;1.02;;;;;;;10.21;85.36;98716.73;1732017;81;21044;-62
2022/06/21 00:46:07;;;;;;;7.10;1.40;;;;;;;10.21;85.48;98715.42;1760853;81;21077;-62
2022/06/21 00:48:37;;;;;;;2.40;0.95;;;;;;;10.18;85.45;98710.40;1758674;79;21533;-62
2022/06/21 00:51:14;;;;;;;3.65;0.90;;;;;;;10.14;85.42;98708.45;1761925;79;21174;-62
2022/06/21 00:53:53;;;;;;;3.05;1.07;;;;;;;10.14;85.27;98707.59;1759729;79;21473;-62
2022/06/21 00:56:51;;;;;;;2.83;0.70;;;;;;;10.04;85.24;98702.95;1753565;79;21568;-62
2022/06/21 00:59:26;;;;;;;5.97;1.00;;;;;;;9.95;85.23;98711.34;1757455;79;21854;-62
2022/06/21 01:02:01;;;;;;;3.35;0.85;;;;;;;9.83;85.11;98712.06;1762600;79;21005;-62
2022/06/21 01:04:39;;;;;;;5.55;1.17;;;;;;;9.71;85.11;98718.03;1761126;79;21580;-62
2022/06/21 01:07:10;;;;;;;2.33;0.50;;;;;;;9.67;85.39;98713.47;1764087;81;21068;-62
2022/06/21 01:09:45;;;;;;;2.47;0.78;;;;;;;9.73;85.27;98710.96;1756170;79;21064;-62
2022/06/21 01:12:20;;;;;;;3.92;1.17;;;;;;;9.71;85.09;98705.83;1731155;80;21570;-62
2022/06/21 01:14:52;;;;;;;2.55;0.60;;;;;;;9.64;85.38;98710.58;1761828;80;20986;-64
2022/06/21 01:17:20;;;;;;;1.32;0.70;;;;;;;9.55;85.35;98708.52;1759697;80;21770;-61
2022/06/21 01:20:00;;;;;;;1.90;0.60;;;;;;;9.51;85.47;98701.80;1762057;79;21048;-62
2022/06/21 01:22:39;;;;;;;2.50;0.68;;;;;;;9.47;85.41;98704.70;1761771;81;21514;-62
2022/06/21 01:25:41;;;;;;;2.70;0.70;;;;;;;9.39;85.35;98707.27;1760431;81;21069;-61
2022/06/21 01:28:10;;;;;;;2.80;0.80;;;;;;;9.34;85.51;98709.77;1760624;79;21181;-62
2022/06/21 01:30:38;;;;;;;1.22;0.50;;;;;;;9.32;85.64;98698.59;1743478;79;21481;-61
2022/06/21 01:33:06;;;;;;;1.85;0.70;;;;;;;9.32;85.70;98703.81;1757529;79;21521;-62
2022/06/21 01:35:44;;;;;;;2.05;0.68;;;;;;;9.30;85.64;98703.05;1757459;80;20997;-62
2022/06/21 01:38:16;;;;;;;2.72;0.45;;;;;;;9.24;85.64;98696.43;1761353;80;21038;-62
2022/06/21 01:43:38;;;;;;;1.57;0.50;;;;;;;9.19;85.97;98694.11;1703734;83;21774;-61
2022/06/21 01:46:09;;;;;;;1.92;0.65;;;;;;;9.29;85.84;98697.01;1676397;84;21144;-62
2022/06/21 01:48:45;;;;;;;1.57;0.70;;;;;;;9.32;85.83;98698.59;1692135;83;20992;-61
2022/06/21 01:51:16;;;;;;;2.15;0.70;;;;;;;9.30;85.81;98705.66;1681137;84;20981;-63
2022/06/21 01:53:44;;;;;;;1.22;0.50;;;;;;;9.27;86.21;98703.23;1679889;83;21107;-62
2022/06/21 01:56:15;;;;;;;1.77;0.72;;;;;;;9.28;86.27;98697.12;1657092;85;21153;-63
2022/06/21 01:58:50;;;;;;;1.72;0.80;;;;;;;9.28;86.32;98698.42;1680495;84;20993;-62
2022/06/21 02:01:21;;;;;;;2.37;0.60;;;;;;;9.29;86.42;98698.78;1682461;83;21048;-62
2022/06/21 02:03:53;;;;;;;3.35;0.90;;;;;;;9.27;86.44;98692.81;1705629;82;20996;-61
2022/06/21 02:06:23;;;;;;;3.05;0.45;;;;;;;9.29;86.51;98684.45;1702178;82;21066;-62
2022/06/21 02:08:59;;;;;;;3.27;0.70;;;;;;;9.29;86.51;98685.75;1701901;82;21111;-61
2022/06/21 02:11:42;;;;;;;3.27;0.57;;;;;;;9.29;86.67;98680.55;1681177;84;21089;-62
2022/06/21 02:14:29;;;;;;;6.12;0.90;;;;;;;9.31;86.70;98665.67;1676157;84;21008;-62
2022/06/21 02:17:13;;;;;;;1.22;0.60;;;;;;;9.31;86.74;98660.47;1657017;84;21051;-62
2022/06/21 02:19:48;;;;;;;1.15;0.50;;;;;;;9.32;86.77;98661.66;1704252;83;21072;-61
2022/06/21 02:22:25;;;;;;;3.47;0.80;;;;;;;9.36;86.70;98663.64;1681114;84;21929;-61
2022/06/21 02:24:52;;;;;;;;;;;;;;;9.40;86.81;98659.91;1705983;83;21069;-62
2022/06/21 02:27:23;;;;;;;4.00;0.80;;;;;;;9.37;86.77;98653.11;1669176;84;26706;-61
2022/06/21 02:29:54;;;;;;;1.50;0.60;;;;;;;9.34;86.74;98653.77;1695378;84;21108;-62
2022/06/21 02:32:36;;;;;;;2.12;0.60;;;;;;;9.34;86.85;98661.58;1699838;83;21022;-61
2022/06/21 02:35:23;;;;;;;0.72;0.50;;;;;;;9.35;86.90;98661.95;1698801;82;22510;-61
2022/06/21 02:37:53;;;;;;;;;;;;;;;9.37;86.97;98660.09;1701010;82;20944;-62
2022/06/21 02:40:28;;;;;;;1.95;0.80;;;;;;;9.39;87.09;98658.25;1697656;82;20123;-62
2022/06/21 02:43:00;;;;;;;2.58;0.90;;;;;;;9.37;87.07;98671.34;1710676;82;20977;-62
2022/06/21 02:45:35;;;;;;;1.90;0.80;;;;;;;9.40;87.20;98659.91;1722895;83;21040;-62
2022/06/21 02:48:08;;;;;;;2.22;1.00;;;;;;;9.43;87.24;98664.94;1720973;81;21825;-62
2022/06/21 02:50:52;;;;;;;1.95;0.85;;;;;;;9.42;87.22;98668.48;1725359;81;20946;-62
2022/06/21 02:53:45;;;;;;;1.52;0.70;;;;;;;9.44;87.33;98661.42;1727199;81;21132;-62
2022/06/21 02:56:25;;;;;;;2.85;0.60;;;;;;;9.45;87.35;98667.00;1651884;85;21638;-62
2022/06/21 02:58:56;;;;;;;2.00;0.75;;;;;;;9.49;87.21;98665.87;1662136;84;21085;-62
2022/06/21 03:01:53;;;;;;;1.52;0.88;;;;;;;9.48;87.21;98652.48;1660432;84;21161;-62
2022/06/21 03:04:25;;;;;;;1.55;0.72;;;;;;;9.48;87.18;98662.91;1670088;84;21095;-62
2022/06/21 03:06:53;;;;;;;2.55;0.75;;;;;;;9.47;87.26;98657.33;1665419;84;21192;-61
2022/06/21 03:09:22;;;;;;;;;;;;;;;9.48;87.33;98655.55;1669087;84;21009;-62
2022/06/21 03:11:53;;;;;;;1.98;0.72;;;;;;;9.49;87.42;98658.05;1671372;84;20203;-62
2022/06/21 03:14:24;;;;;;;1.80;1.00;;;;;;;9.52;87.48;98651.82;1658280;84;21101;-62
2022/06/21 03:16:52;;;;;;;1.30;0.80;;;;;;;9.58;87.54;98658.83;1665820;84;21147;-62
2022/06/21 03:19:29;;;;;;;2.95;0.90;;;;;;;9.62;87.57;98659.47;1659900;83;21041;-61
2022/06/21 03:21:56;;;;;;;;;;;;;;;9.64;87.54;98666.27;1671820;84;21348;-62
2022/06/21 03:24:26;;;;;;;2.00;0.88;;;;;;;9.69;87.59;98667.75;1666742;84;20178;-62
2022/06/21 03:27:19;;;;;;;2.80;1.60;;;;;;;9.67;87.61;98661.81;1671806;84;21251;-63
2022/06/21 03:29:46;;;;;;;1.60;0.80;;;;;;;9.68;87.62;98660.87;1646151;85;21133;-64
2022/06/21 03:32:14;;;;;;;1.98;0.90;;;;;;;9.73;87.77;98666.65;1666421;83;21057;-63
2022/06/21 03:34:43;;;;;;;3.08;1.17;;;;;;;9.75;87.78;98663.02;1701960;82;22468;-61
2022/06/21 03:37:11;;;;;;;2.42;1.30;;;;;;;9.78;87.84;98671.12;1711308;82;21131;-62
2022/06/21 03:42:29;;;;;;;1.65;1.00;;;;;;;9.85;88.09;98680.23;1699268;83;20158;-62
2022/06/21 03:45:10;;;;;;;1.72;1.35;;;;;;;9.91;88.17;98675.11;1706349;82;21623;-61
2022/06/21 03:47:54;;;;;;;3.25;1.17;;;;;;;9.95;88.30;98680.05;1691845;83;20974;-62
2022/06/21 03:50:32;;;;;;;2.72;1.30;;;;;;;10.05;88.18;98682.48;1716900;82;21053;-62
2022/06/21 03:53:13;;;;;;;2.20;1.15;;;;;;;10.14;88.17;98681.51;1691815;83;21014;-62
2022/06/21 03:55:57;;;;;;;2.92;1.20;;;;;;;10.19;88.16;98671.63;1714890;83;21029;-61
2022/06/21 03:58:38;;;;;;;2.27;1.12;;;;;;;10.26;88.23;98664.64;1714907;82;20985;-62
2022/06/21 04:01:28;;;;;;;2.25;1.10;;;;;;;10.33;88.21;98655.98;1714648;82;20949;-61
2022/06/21 04:04:18;;;;;;;1.95;1.10;;;;;;;10.45;88.33;98657.83;1714563;82;21016;-63
2022/06/21 04:07:02;;;;;;;1.00;0.90;;;;;;;10.60;88.37;98655.17;1694291;82;21506;-62
2022/06/21 04:09:49;;;;;;;1.35;1.00;;;;;;;10.75;88.34;98669.83;1674079;82;21581;-62
2022/06/21 04:12:27;;;;;;;3.87;1.00;;;;;;;10.87;88.26;98671.66;1707406;81;21279;-61
2022/06/21 04:15:23;;;;;;;1.65;0.95;;;;;;;10.96;88.09;98668.44;1715033;81;21589;-62
2022/06/21 04:17:57;;;;;;;2.98;0.80;;;;;;;11.00;87.98;98669.06;1712490;81;21033;-62
2022/06/21 04:20:41;;;;;;;1.30;0.90;;;;;;;11.11;88.16;98679.65;1675676;83;21454;-62
2022/06/21 04:23:31;;;;;;;3.77;1.00;;;;;;;11.24;88.17;98677.08;1672882;82;21624;-62
2022/06/21 04:26:09;;;;;;;4.75;1.00;;;;;;;11.36;88.20;98663.17;1595822;87;21152;-63
2022/06/21 04:28:43;;;;;;;3.52;1.00;;;;;;;11.77;88.40;98677.83;1575727;88;21128;-63
2022/06/21 04:31:20;;;;;;;1.35;0.70;;;;;;;12.08;88.40;98678.36;1572212;88;21124;-61
2022/06/21 04:33:53;;;;;;;2.40;1.10;;;;;;;12.62;88.81;98676.67;1610342;87;21131;-62
2022/06/21 04:36:28;;;;;;;3.02;1.05;;;;;;;13.79;89.41;98674.56;1613564;87;21088;-64
2022/06/21 04:39:21;;;;;;;2.65;1.00;;;;;;;14.85;88.93;98674.09;1599757;87;21602;-63
2022/06/21 04:42:11;;;;;;;4.08;0.68;;;;;;;15.09;86.01;98676.48;1618392;87;22389;-62
2022/06/21 04:44:59;;;;;;;2.75;0.80;;;;;;;15.08;85.51;98669.57;1610569;86;21336;-63
2022/06/21 04:47:55;;;;;;;1.92;1.10;;;;;;;15.31;84.84;98679.00;1616652;86;21123;-63
2022/06/21 04:50:42;;;;;;;2.75;0.93;;;;;;;15.32;84.59;98682.46;1650443;85;24300;-63
2022/06/21 04:53:49;;;;;;;2.05;0.80;;;;;;;15.37;84.91;98687.69;1621944;86;21076;-63
2022/06/21 04:57:10;;;;;;;1.87;0.90;;;;;;;15.14;82.57;98695.34;1639627;85;21064;-63
2022/06/21 04:59:55;;;;;;;1.22;0.60;;;;;;;14.57;80.31;98707.02;1649368;85;21091;-63
2022/06/21 05:02:36;;;;;;;1.30;0.62;;;;;;;14.39;83.51;98708.77;1652703;84;21923;-64
2022/06/21 05:05:17;;;;;;;4.80;0.93;;;;;;;14.38;83.23;98708.43;1664004;85;21056;-64
2022/06/21 05:08:01;;;;;;;2.12;1.00;;;;;;;14.12;83.43;98703.09;1664893;85;21193;-64
2022/06/21 05:10:37;;;;;;;3.20;0.95;;;;;;;13.97;82.86;98707.23;1666400;85;21631;-62
2022/06/21 05:13:15;;;;;;;2.47;0.88;;;;;;;13.95;82.36;98701.30;1666566;85;21685;-63
2022/06/21 05:15:42;;;;;;;2.25;0.70;;;;;;;13.73;81.67;98707.36;1661298;85;21185;-63
2022/06/21 05:18:20;;;;;;;1.75;0.70;;;;;;;13.35;81.48;98703.69;1672290;85;21152;-62
2022/06/21 05:21:10;;;;;;;4.45;0.60;;;;;;;13.00;81.90;98726.77;1663543;85;21114;-62
2022/06/21 05:23:37;;;;;;;1.62;0.75;;;;;;;12.60;81.49;98729.63;1670524;85;21703;-62
2022/06/21 05:26:09;;;;;;;3.22;0.70;;;;;;;12.06;81.76;98733.39;1667924;85;21173;-62
2022/06/21 05:28:53;;;;;;;3.27;0.80;;;;;;;11.81;100.00;98744.66;1674468;85;21173;-63
2022/06/21 05:31:34;;;;;;;2.70;0.90;;;;;;;11.49;87.48;98753.86;1691147;83;20970;-62
2022/06/21 05:34:37;;;;;;;4.65;1.70;;;;;;;11.08;86.64;98765.23;1667247;83;20970;-62
2022/06/21 05:37:31;;;;;;;1.92;0.70;;;;;;;10.79;86.96;98779.69;1689478;83;21135;-62
2022/06/21 05:40:03;;;;;;;2.25;0.65;;;;;;;10.50;86.83;98781.05;1702107;83;22523;-62
2022/06/21 05:42:30;;;;;;;4.20;0.75;;;;;;;10.32;87.28;98760.45;1639734;86;21331;-62
2022/06/21 05:45:11;;;;;;;1.20;0.45;;;;;;;10.33;87.69;98757.73;1649188;86;21995;-62
2022/06/21 05:47:47;;;;;;;1.67;0.70;;;;;;;10.41;87.99;98763.32;1659757;86;21033;-62
2022/06/21 05:50:27;;;;;;;1.95;0.60;;;;;;;10.49;87.51;98781.95;1645068;86;21025;-62
2022/06/21 05:52:57;;;;;;;0.88;0.50;;;;;;;10.57;87.67;98771.52;1652718;86;21053;-62
2022/06/21 05:55:37;;;;;;;1.75;0.70;;;;;;;10.71;87.85;98757.13;1637569;86;21005;-63
2022/06/21 05:58:09;;;;;;;1.25;0.60;;;;;;;10.87;87.93;98765.67;1624587;86;21113;-62
2022/06/21 06:01:05;;;;;;;1.82;0.50;;;;;;;10.96;87.63;98762.47;1659915;84;21102;-62
2022/06/21 06:03:46;;;;;;;1.90;0.53;;;;;;;11.02;87.53;98763.02;1644948;86;21815;-63
2022/06/21 06:06:17;;;;;;;1.02;0.42;;;;;;;10.98;87.23;98778.89;1647828;86;21010;-63
2022/06/21 06:08:52;;;;;;;1.30;0.55;;;;;;;10.98;87.23;98778.89;1638275;86;21617;-64
2022/06/21 06:11:57;;;;;;;1.45;0.40;;;;;;;11.04;87.44;98759.37;1627564;86;21121;-63
2022/06/21 06:13:56;;;;;;;1.37;0.55;;;;;;;11.04;87.44;98759.37;1638443;86;21082;-64
2022/06/21 06:16:28;;;;;;;3.98;0.50;;;;;;;11.24;87.46;98778.98;1650213;86;21096;-64
2022/06/21 06:19:04;;;;;;;2.62;0.60;;;;;;;11.20;87.03;98767.03;1640949;86;21028;-65
2022/06/21 06:21:42;;;;;;;1.30;0.47;;;;;;;11.11;87.07;98766.33;1657924;84;21004;-64
2022/06/21 06:24:14;;;;;;;;;;;;;;;11.15;87.44;98763.91;1650619;86;21116;-63
2022/06/21 06:26:44;;;;;;;3.30;0.82;;;;;;;11.24;87.17;98765.91;1627452;86;20237;-64
2022/06/21 06:29:37;;;;;;;1.15;0.53;;;;;;;11.31;87.28;98772.40;1639850;84;21172;-63
2022/06/21 06:32:23;;;;;;;4.40;0.70;;;;;;;11.31;87.28;98772.40;1662048;84;21084;-63
2022/06/21 06:34:53;;;;;;;1.02;0.55;;;;;;;11.51;87.70;98775.48;1646630;86;21085;-64
2022/06/21 06:37:25;;;;;;;1.70;0.78;;;;;;;11.83;87.88;98774.17;1643510;86;21595;-63
2022/06/21 06:39:52;;;;;;;2.52;0.47;;;;;;;12.19;88.18;98777.88;1660543;84;21044;-64
2022/06/21 06:42:29;;;;;;;3.12;1.10;;;;;;;12.88;88.86;98782.66;1654358;85;21134;-63
2022/06/21 06:45:04;;;;;;;1.40;0.83;;;;;;;13.41;88.34;98775.33;1641786;85;20987;-63
2022/06/21 06:47:42;;;;;;;2.33;1.05;;;;;;;13.86;87.51;98776.31;1678815;84;21579;-64
2022/06/21 06:50:32;;;;;;;2.25;0.80;;;;;;;14.21;87.65;98780.64;1651339;85;21660;-63
2022/06/21 06:53:16;;;;;;;3.25;1.12;;;;;;;14.60;87.74;98781.15;1685994;84;21020;-63
2022/06/21 06:55:51;;;;;;;3.72;0.98;;;;;;;15.06;87.48;98792.41;1652245;85;21586;-63
2022/06/21 06:58:35;;;;;;;1.92;1.00;;;;;;;15.12;86.38;98794.54;1642221;85;21157;-64
2022/06/21 07:01:13;;;;;;;2.92;1.22;;;;;;;15.20;85.84;98806.11;1672149;84;21130;-64
2022/06/21 07:04:58;;;;;;;2.20;1.32;;;;;;;14.87;85.46;98805.73;1859679;75;22740;-62
2022/06/21 07:07:45;;;;;;;2.35;1.00;;;;;;;14.89;86.48;98816.11;1792486;77;21032;-65
2022/06/21 07:10:17;;;;;;;2.22;0.93;;;;;;;14.84;85.78;98828.28;1826509;77;21600;-64
2022/06/21 07:12:44;;;;;;;3.75;1.35;;;;;;;15.15;87.21;98823.21;1826972;77;21037;-64
2022/06/21 07:15:13;;;;;;;2.98;1.22;;;;;;;15.37;87.10;98827.09;1832733;77;20986;-65
2022/06/21 07:17:48;;;;;;;2.75;1.12;;;;;;;16.28;88.60;98824.40;1835746;76;21008;-66
2022/06/21 07:20:32;;;;;;;4.47;1.57;;;;;;;16.85;85.28;98826.61;1834109;77;20965;-66
2022/06/21 07:22:59;;;;;;;3.77;1.15;;;;;;;17.12;85.52;98822.86;1830350;77;21464;-65
2022/06/21 07:25:40;;;;;;;2.22;1.00;;;;;;;17.89;86.85;98826.52;1830590;77;21012;-65
2022/06/21 07:28:18;;;;;;;3.08;1.20;;;;;;;18.05;84.38;98830.74;1830890;76;21024;-65
2022/06/21 07:30:49;;;;;;;2.20;1.02;;;;;;;17.45;82.43;98834.02;1827242;77;21096;-65
2022/06/21 07:33:38;;;;;;;3.27;1.20;;;;;;;17.37;83.54;98835.20;1831468;77;21065;-65
2022/06/21 07:36:10;;;;;;;2.90;1.10;;;;;;;17.43;84.79;98837.28;1832566;77;21561;-62
2022/06/21 07:38:57;;;;;;;5.45;1.20;;;;;;;17.31;83.42;98844.49;1831176;77;20903;-63
2022/06/21 07:44:26;;;;;;;4.10;1.05;;;;;;;16.56;81.93;98832.58;1850178;76;22718;-62
2022/06/21 07:46:58;;;;;;;2.35;1.10;;;;;;;15.88;78.23;98839.61;1819458;77;20967;-61
2022/06/21 07:49:45;;;;;;;3.87;1.07;;;;;;;15.94;81.71;98836.12;1817491;78;21111;-63
2022/06/21 07:52:32;;;;;;;2.12;0.90;;;;;;;16.08;82.65;98833.16;1812984;77;21106;-61
2022/06/21 07:55:07;;;;;;;2.50;0.88;;;;;;;16.58;82.95;98839.88;1811771;78;22336;-61
2022/06/21 07:57:41;;;;;;;3.30;1.02;;;;;;;16.42;80.09;98832.94;1817214;77;21014;-61
2022/06/21 08:00:19;;;;;;;2.77;1.02;;;;;;;16.34;79.95;98840.99;1815686;78;21040;-62
2022/06/21 08:08:48;;;;;;;1.52;0.50;;;;;;;16.95;79.90;98840.66;1708741;81;22281;-61
2022/06/21 08:11:19;;;;;;;1.12;0.57;;;;;;;16.48;78.99;98845.58;1711077;81;21685;-61
2022/06/21 08:13:49;;;;;;;2.70;0.80;;;;;;;15.86;77.05;98856.00;1705425;82;20962;-62
2022/06/21 08:16:21;;;;;;;0.85;0.50;;;;;;;15.68;78.94;98850.93;1688018;83;21992;-61
2022/06/21 08:19:19;;;;;;;4.83;0.60;;;;;;;16.02;78.71;98865.25;1712683;83;21533;-61
2022/06/21 08:22:50;;;;;;;1.60;0.80;;;;;;;16.57;78.46;98860.59;1838952;74;22671;-63
2022/06/21 08:25:39;;;;;;;2.87;0.50;;;;;;;17.11;79.11;98862.09;1815644;78;20997;-64
2022/06/21 08:28:28;;;;;;;1.27;0.70;;;;;;;17.02;78.28;98866.83;1810168;78;22012;-63
2022/06/21 08:31:39;;;;;;;3.00;0.80;;;;;;;16.07;77.10;98870.97;1801558;77;22703;-62
2022/06/21 08:34:23;;;;;;;1.67;0.70;;;;;;;15.60;77.36;98884.44;1781426;77;21186;-62
2022/06/21 08:36:55;;;;;;;2.90;0.80;;;;;;;15.34;78.06;98886.52;1776618;77;21094;-64
2022/06/21 08:40:55;;;;;;;4.25;0.88;;;;;;;15.32;78.60;98892.86;1856650;74;22785;-63
2022/06/21 08:44:20;;;;;;;5.40;1.15;;;;;;;15.07;78.58;98893.97;1761009;79;20995;-63
2022/06/21 08:47:19;;;;;;;4.03;1.20;;;;;;;14.76;78.61;98906.91;1800237;78;21298;-62
2022/06/21 08:50:33;;;;;;;3.35;0.70;;;;;;;14.46;78.97;98901.70;1797279;78;21559;-62
2022/06/21 08:53:41;;;;;;;4.75;1.40;;;;;;;14.57;79.60;98898.78;1791431;78;21072;-64
2022/06/21 08:56:24;;;;;;;1.98;0.90;;;;;;;15.20;80.26;98897.31;1762093;80;21065;-63
2022/06/21 08:59:20;;;;;;;2.27;1.10;;;;;;;16.17;80.98;98894.27;1797509;77;21029;-61
2022/06/21 09:02:05;;;;;;;1.75;0.93;;;;;;;16.62;78.62;98901.88;1794799;78;22294;-63
2022/06/21 09:04:42;;;;;;;4.53;1.40;;;;;;;16.85;78.91;98897.79;1781752;79;21092;-62
2022/06/21 09:07:33;;;;;;;2.22;0.90;;;;;;;16.53;77.10;98893.45;1779005;78;21077;-61
2022/06/21 09:10:14;;;;;;;5.65;1.00;;;;;;;16.08;76.60;98902.94;1774924;79;21017;-62
2022/06/21 09:13:06;;;;;;;3.33;1.15;;;;;;;15.56;76.10;98914.57;1783620;78;21008;-61
2022/06/21 09:16:17;;;;;;;2.12;0.95;;;;;;;15.49;76.97;98912.55;1784990;78;21042;-63
2022/06/21 09:19:15;;;;;;;1.95;0.90;;;;;;;15.91;77.14;98908.73;1782248;79;21107;-64
2022/06/21 09:22:05;;;;;;;2.37;1.00;;;;;;;16.55;76.39;98908.63;1781310;78;20985;-64
2022/06/21 09:25:11;;;;;;;2.08;1.07;;;;;;;16.25;73.79;98945.83;1783820;79;20997;-64
2022/06/21 09:27:51;;;;;;;2.12;0.90;;;;;;;15.89;74.85;98913.66;1746000;81;21099;-64
2022/06/21 09:30:29;;;;;;;3.35;0.95;;;;;;;15.83;75.03;98914.17;1737822;81;22376;-64
2022/06/21 09:33:04;;;;;;;1.75;1.02;;;;;;;15.98;74.68;98912.06;1742202;81;21008;-64
2022/06/21 09:35:57;;;;;;;2.77;0.93;;;;;;;16.29;75.04;98912.98;1690500;82;21021;-63
2022/06/21 09:38:46;;;;;;;1.92;0.70;;;;;;;16.48;71.04;98923.30;1706278;82;21175;-64
2022/06/21 09:41:35;;;;;;;1.75;0.70;;;;;;;16.62;70.02;98899.73;1717824;80;21048;-64
2022/06/21 09:44:19;;;;;;;2.62;0.80;;;;;;;16.45;70.04;98925.71;1723234;81;21057;-64
2022/06/21 09:46:51;;;;;;;6.22;0.75;;;;;;;16.62;69.04;98926.09;1684126;82;21161;-63
2022/06/21 09:49:48;;;;;;;2.27;0.98;;;;;;;16.80;70.07;98927.66;1684808;83;21136;-64
2022/06/21 09:52:44;;;;;;;2.45;0.98;;;;;;;16.93;70.04;98929.61;1695469;84;21152;-64
2022/06/21 09:55:49;;;;;;;1.75;0.70;;;;;;;17.31;69.69;98930.70;1698471;82;21033;-62
2022/06/21 09:58:28;;;;;;;1.95;0.90;;;;;;;17.38;68.26;98935.80;1662725;84;21122;-62
2022/06/21 10:01:14;;;;;;;2.05;0.88;;;;;;;16.84;64.86;98937.00;1662235;84;21017;-61
2022/06/21 10:04:00;;;;;;;;;;;;;;;16.73;67.55;98940.02;1638151;86;20982;-62
2022/06/21 10:06:37;;;;;;;3.92;0.70;;;;;;;17.06;67.94;98936.81;1661038;84;20171;-63
2022/06/21 10:09:21;;;;;;;4.90;0.82;;;;;;;17.30;67.83;98938.27;1667342;84;21305;-62
2022/06/21 10:12:16;;;;;;;1.12;0.60;;;;;;;17.67;67.91;98958.28;1656906;84;21131;-61
2022/06/21 10:15:06;;;;;;;1.17;0.50;;;;;;;17.49;67.27;98952.84;1665767;84;21124;-60
2022/06/21 10:18:01;;;;;;;5.08;0.82;;;;;;;17.18;67.79;98960.80;1663686;84;21137;-61
2022/06/21 10:20:54;;;;;;;1.22;0.60;;;;;;;17.19;65.22;98959.81;1615969;87;21666;-61
2022/06/21 10:24:00;;;;;;;2.35;0.75;;;;;;;17.36;66.86;98957.52;1660738;83;21133;-61
2022/06/21 10:27:12;;;;;;;3.00;0.50;;;;;;;17.52;65.03;98975.00;1692676;82;21940;-61
2022/06/21 10:29:57;;;;;;;1.35;0.60;;;;;;;17.26;64.70;98964.59;1733238;79;21184;-61
2022/06/21 10:32:37;;;;;;;1.30;0.60;;;;;;;17.21;64.69;98969.77;1753778;79;21038;-61
2022/06/21 10:35:33;;;;;;;1.47;0.57;;;;;;;17.21;65.28;98961.85;1621431;86;21123;-61
2022/06/21 10:38:17;;;;;;;1.80;0.80;;;;;;;17.26;64.87;98976.46;1678818;84;21154;-62
2022/06/21 10:41:30;;;;;;;1.65;0.60;;;;;;;17.08;65.96;98986.29;1680028;83;21119;-62
2022/06/21 10:44:14;;;;;;;2.55;0.78;;;;;;;16.71;66.06;98984.12;1678801;83;20965;-62
2022/06/21 10:46:52;;;;;;;1.50;0.50;;;;;;;16.73;66.55;98987.47;1680897;83;21468;-61
2022/06/21 10:49:47;;;;;;;3.27;0.93;;;;;;;16.84;66.60;98980.50;1679101;84;21187;-61
2022/06/21 10:52:37;;;;;;;1.02;0.40;;;;;;;17.33;63.56;98992.09;1678152;83;21111;-61
2022/06/21 10:55:36;;;;;;;1.75;0.70;;;;;;;17.20;65.21;98995.80;1677297;83;21191;-62
2022/06/21 10:58:25;;;;;;;2.15;0.50;;;;;;;16.81;64.92;99007.12;1678304;84;21171;-62
2022/06/21 11:01:38;;;;;;;1.95;0.80;;;;;;;16.97;66.42;99010.11;1677692;83;21112;-62
2022/06/21 11:04:46;;;;;;;1.10;0.60;;;;;;;17.31;65.16;99005.44;1678923;84;21056;-61
2022/06/21 11:07:28;;;;;;;1.62;0.60;;;;;;;17.19;64.84;99015.22;1690755;83;21717;-59
2022/06/21 11:10:06;;;;;;;1.22;0.50;;;;;;;16.64;64.48;99019.88;1696768;83;21133;-62
2022/06/21 11:15:44;;;;;;;1.60;0.50;;;;;;;16.81;65.02;99015.03;1791652;78;21132;-61
2022/06/21 11:18:48;;;;;;;2.00;0.80;;;;;;;17.00;63.88;99025.70;1774328;80;21129;-60
2022/06/21 11:21:41;;;;;;;1.22;0.53;;;;;;;16.89;64.10;99016.05;1781496;80;21634;-62
2022/06/21 11:24:30;;;;;;;0.90;0.40;;;;;;;16.57;62.68;99005.53;1726574;82;21135;-62
2022/06/21 11:27:14;;;;;;;1.50;0.70;;;;;;;16.43;63.39;99025.12;1727239;81;21113;-62
2022/06/21 11:30:04;;;;;;;1.45;0.47;;;;;;;16.94;65.32;99028.83;1736502;80;20994;-61
2022/06/21 11:33:09;;;;;;;3.15;0.68;;;;;;;17.41;64.70;99030.52;1719481;82;21075;-63
2022/06/21 11:36:02;;;;;;;1.60;0.57;;;;;;;17.28;62.14;99028.59;1720094;81;21014;-61
2022/06/21 11:38:52;;;;;;;2.55;0.40;;;;;;;17.44;63.50;99030.26;1720590;82;21589;-62
2022/06/21 11:45:01;;;;;;;0.60;0.30;;;;;;;17.33;62.93;99039.58;1730093;82;21551;-63
2022/06/21 11:47:59;;;;;;;2.10;0.45;;;;;;;17.62;62.05;99040.55;1717829;83;21172;-65
2022/06/21 11:51:06;;;;;;;1.07;0.47;;;;;;;17.37;61.91;99041.02;1730326;82;21018;-64
2022/06/21 11:54:11;;;;;;;1.65;1.12;;;;;;;17.02;62.60;99050.11;1715503;83;21147;-64
2022/06/21 11:56:56;;;;;;;2.83;0.60;;;;;;;17.07;60.74;99047.09;1699933;82;21241;-63
2022/06/21 11:59:40;;;;;;;0.33;0.20;;;;;;;17.17;61.56;99062.02;1717406;82;21751;-61
2022/06/21 12:02:34;;;;;;;3.25;0.50;;;;;;;17.02;61.35;99063.30;1762031;78;21111;-62
2022/06/21 12:05:21;;;;;;;4.58;0.70;;;;;;;16.97;61.81;99057.57;1770155;80;21105;-63
2022/06/21 12:08:11;;;;;;;3.33;0.53;;;;;;;17.14;61.37;99067.56;1774688;78;21603;-62
2022/06/21 12:10:51;;;;;;;2.47;0.40;;;;;;;17.03;61.09;99051.80;1784432;78;21059;-64
2022/06/21 12:13:32;;;;;;;1.62;0.50;;;;;;;16.99;61.87;99056.48;1773928;79;21163;-63
2022/06/21 12:16:37;;;;;;;1.60;0.50;;;;;;;17.30;61.32;99066.23;1778802;80;21001;-62
2022/06/21 12:19:57;;;;;;;1.82;0.40;;;;;;;17.53;61.71;99071.71;1848044;75;22780;-61
2022/06/21 12:22:46;;;;;;;1.47;0.57;;;;;;;17.72;60.42;99071.42;1819896;76;20937;-63
2022/06/21 12:25:16;;;;;;;0.50;0.40;;;;;;;18.00;59.00;99056.66;1766434;79;21767;-63
2022/06/21 12:27:44;;;;;;;0.82;0.40;;;;;;;18.28;60.94;99073.52;1764591;79;21563;-63
2022/06/21 12:30:28;;;;;;;2.20;0.40;;;;;;;18.72;61.11;99072.64;1767092;78;21587;-62
2022/06/21 12:33:02;;;;;;;1.15;0.55;;;;;;;18.82;60.99;99070.86;1787957;78;21060;-62
2022/06/21 12:35:58;;;;;;;2.70;0.50;;;;;;;19.04;59.14;99078.13;1787976;78;20938;-64
2022/06/21 12:38:30;;;;;;;;;;;;;;;18.58;58.07;99074.39;1765540;79;22818;-62
2022/06/21 12:41:14;;;;;;;0.90;0.50;;;;;;;18.04;57.85;99090.59;1797420;79;20519;-62
2022/06/21 12:44:11;;;;;;;1.65;0.60;;;;;;;17.81;59.08;99082.52;1788652;78;21478;-62
2022/06/21 12:46:58;;;;;;;;;;;;;;;17.33;58.17;99094.99;1789577;79;21076;-61
2022/06/21 12:49:49;;;;;;;0.53;0.40;;;;;;;17.37;59.18;99089.83;1784725;79;20142;-62
2022/06/21 12:52:30;;;;;;;2.45;0.45;;;;;;;17.50;59.91;99087.78;1771222;79;21120;-63
2022/06/21 12:55:08;;;;;;;0.95;0.47;;;;;;;17.89;60.39;99091.92;1794982;79;21052;-62
2022/06/21 12:58:05;;;;;;;1.12;0.50;;;;;;;17.92;58.87;99089.02;1790029;79;21012;-62
2022/06/21 13:00:52;;;;;;;0.60;0.20;;;;;;;17.87;59.03;99087.29;1766409;81;21020;-61
2022/06/21 13:03:30;;;;;;;0.95;0.65;;;;;;;17.58;59.17;99091.92;1758685;81;21080;-62
2022/06/21 13:06:31;;;;;;;1.42;0.60;;;;;;;17.50;59.68;99100.15;1730569;81;21054;-62
2022/06/21 13:09:41;;;;;;;1.60;0.53;;;;;;;17.05;58.99;99103.92;1728587;81;21210;-61